sensor_id;sensor_type;location;lat;lon;timestamp;P1;durP1;ratioP1;P2;durP2;ratioP2
11283;SDS011;5698;47.332;11.180;2024-02-26T00:01:27;0.60;;;0.60;;
11283;SDS011;5698;47.332;11.180;2024-02-26T00:03:59;0.50;;;0.50;;
11283;SDS011;5698;47.332;11.180;2024-02-26T00:06:27;0.60;;;0.60;;
11283;SDS011;5698;47.332;11.180;2024-02-26T00:08:54;0.60;;;0.60;;
11283;SDS011;5698;47.332;11.180;2024-02-26T00:11:21;1.70;;;0.50;;
11283;SDS011;5698;47.332;11.180;2024-02-26T00:13:48;0.50;;;0.50;;
11283;SDS011;5698;47.332;11.180;2024-02-26T00:16:15;0.40;;;0.40;;
11283;SDS011;5698;47.332;11.180;2024-02-26T00:18:42;2.10;;;0.73;;
11283;SDS011;5698;47.332;11.180;2024-02-26T00:21:11;0.53;;;0.50;;
11283;SDS011;5698;47.332;11.180;2024-02-26T00:23:38;0.80;;;0.60;;
11283;SDS011;5698;47.332;11.180;2024-02-26T00:26:05;0.70;;;0.63;;
11283;SDS011;5698;47.332;11.180;2024-02-26T00:28:32;0.57;;;0.57;;
11283;SDS011;5698;47.332;11.180;2024-02-26T00:30:59;0.67;;;0.67;;
11283;SDS011;5698;47.332;11.180;2024-02-26T00:33:27;0.50;;;0.50;;
11283;SDS011;5698;47.332;11.180;2024-02-26T00:35:54;0.50;;;0.50;;
11283;SDS011;5698;47.332;11.180;2024-02-26T00:38:23;0.60;;;0.60;;
11283;SDS011;5698;47.332;11.180;2024-02-26T00:40:50;0.53;;;0.53;;
11283;SDS011;5698;47.332;11.180;2024-02-26T00:43:17;1.50;;;0.60;;
11283;SDS011;5698;47.332;11.180;2024-02-26T00:45:44;0.53;;;0.53;;
11283;SDS011;5698;47.332;11.180;2024-02-26T00:48:11;0.60;;;0.60;;
11283;SDS011;5698;47.332;11.180;2024-02-26T00:50:38;0.50;;;0.50;;
11283;SDS011;5698;47.332;11.180;2024-02-26T00:53:06;1.00;;;0.80;;
11283;SDS011;5698;47.332;11.180;2024-02-26T00:55:35;0.40;;;0.40;;
11283;SDS011;5698;47.332;11.180;2024-02-26T00:58:02;0.40;;;0.40;;
11283;SDS011;5698;47.332;11.180;2024-02-26T01:00:29;0.60;;;0.60;;
11283;SDS011;5698;47.332;11.180;2024-02-26T01:02:56;0.60;;;0.60;;
11283;SDS011;5698;47.332;11.180;2024-02-26T01:05:24;0.70;;;0.70;;
11283;SDS011;5698;47.332;11.180;2024-02-26T01:07:51;0.60;;;0.60;;
11283;SDS011;5698;47.332;11.180;2024-02-26T01:10:18;0.60;;;0.60;;
11283;SDS011;5698;47.332;11.180;2024-02-26T01:12:47;0.60;;;0.60;;
11283;SDS011;5698;47.332;11.180;2024-02-26T01:15:14;0.50;;;0.50;;
11283;SDS011;5698;47.332;11.180;2024-02-26T01:17:41;1.37;;;0.50;;
11283;SDS011;5698;47.332;11.180;2024-02-26T01:20:08;0.67;;;0.50;;
11283;SDS011;5698;47.332;11.180;2024-02-26T01:22:35;1.07;;;0.60;;
11283;SDS011;5698;47.332;11.180;2024-02-26T01:25:02;0.57;;;0.57;;
11283;SDS011;5698;47.332;11.180;2024-02-26T01:27:29;0.53;;;0.53;;
11283;SDS011;5698;47.332;11.180;2024-02-26T01:29:57;0.60;;;0.60;;
11283;SDS011;5698;47.332;11.180;2024-02-26T01:32:24;0.73;;;0.60;;
11283;SDS011;5698;47.332;11.180;2024-02-26T01:34:51;0.50;;;0.50;;
11283;SDS011;5698;47.332;11.180;2024-02-26T01:37:18;0.60;;;0.60;;
11283;SDS011;5698;47.332;11.180;2024-02-26T01:39:45;0.60;;;0.60;;
11283;SDS011;5698;47.332;11.180;2024-02-26T01:42:12;0.80;;;0.80;;
11283;SDS011;5698;47.332;11.180;2024-02-26T01:44:39;0.77;;;0.63;;
11283;SDS011;5698;47.332;11.180;2024-02-26T01:47:10;0.50;;;0.50;;
11283;SDS011;5698;47.332;11.180;2024-02-26T01:49:39;0.60;;;0.60;;
11283;SDS011;5698;47.332;11.180;2024-02-26T01:52:07;0.60;;;0.60;;
11283;SDS011;5698;47.332;11.180;2024-02-26T01:54:36;0.73;;;0.60;;
11283;SDS011;5698;47.332;11.180;2024-02-26T01:57:04;0.60;;;0.60;;
11283;SDS011;5698;47.332;11.180;2024-02-26T01:59:32;1.57;;;0.50;;
11283;SDS011;5698;47.332;11.180;2024-02-26T02:02:01;0.90;;;0.90;;
11283;SDS011;5698;47.332;11.180;2024-02-26T02:04:33;0.60;;;0.60;;
11283;SDS011;5698;47.332;11.180;2024-02-26T02:07:00;0.70;;;0.50;;
11283;SDS011;5698;47.332;11.180;2024-02-26T02:09:28;2.30;;;0.60;;
11283;SDS011;5698;47.332;11.180;2024-02-26T02:11:55;1.07;;;0.67;;
11283;SDS011;5698;47.332;11.180;2024-02-26T02:14:22;0.53;;;0.53;;
11283;SDS011;5698;47.332;11.180;2024-02-26T02:16:50;0.73;;;0.60;;
11283;SDS011;5698;47.332;11.180;2024-02-26T02:19:17;0.50;;;0.50;;
11283;SDS011;5698;47.332;11.180;2024-02-26T02:21:45;0.53;;;0.50;;
11283;SDS011;5698;47.332;11.180;2024-02-26T02:24:12;0.50;;;0.50;;
11283;SDS011;5698;47.332;11.180;2024-02-26T02:26:39;0.87;;;0.87;;
11283;SDS011;5698;47.332;11.180;2024-02-26T02:29:06;1.50;;;0.53;;
11283;SDS011;5698;47.332;11.180;2024-02-26T02:31:34;0.60;;;0.60;;
11283;SDS011;5698;47.332;11.180;2024-02-26T02:34:01;0.60;;;0.60;;
11283;SDS011;5698;47.332;11.180;2024-02-26T02:36:29;0.50;;;0.50;;
11283;SDS011;5698;47.332;11.180;2024-02-26T02:38:57;0.60;;;0.60;;
11283;SDS011;5698;47.332;11.180;2024-02-26T02:41:24;0.50;;;0.50;;
11283;SDS011;5698;47.332;11.180;2024-02-26T02:43:54;0.70;;;0.57;;
11283;SDS011;5698;47.332;11.180;2024-02-26T02:46:21;0.70;;;0.40;;
11283;SDS011;5698;47.332;11.180;2024-02-26T02:48:48;0.50;;;0.50;;
11283;SDS011;5698;47.332;11.180;2024-02-26T02:51:15;0.47;;;0.47;;
11283;SDS011;5698;47.332;11.180;2024-02-26T02:53:42;0.50;;;0.50;;
11283;SDS011;5698;47.332;11.180;2024-02-26T02:56:11;1.00;;;0.50;;
11283;SDS011;5698;47.332;11.180;2024-02-26T02:58:37;0.50;;;0.50;;
11283;SDS011;5698;47.332;11.180;2024-02-26T03:01:04;0.50;;;0.50;;
11283;SDS011;5698;47.332;11.180;2024-02-26T03:03:31;0.50;;;0.50;;
11283;SDS011;5698;47.332;11.180;2024-02-26T03:05:58;0.53;;;0.53;;
11283;SDS011;5698;47.332;11.180;2024-02-26T03:08:25;0.70;;;0.50;;
11283;SDS011;5698;47.332;11.180;2024-02-26T03:10:51;0.40;;;0.40;;
11283;SDS011;5698;47.332;11.180;2024-02-26T03:13:20;0.50;;;0.50;;
11283;SDS011;5698;47.332;11.180;2024-02-26T03:15:47;0.60;;;0.60;;
11283;SDS011;5698;47.332;11.180;2024-02-26T03:18:14;0.50;;;0.50;;
11283;SDS011;5698;47.332;11.180;2024-02-26T03:20:41;0.60;;;0.60;;
11283;SDS011;5698;47.332;11.180;2024-02-26T03:23:08;0.40;;;0.40;;
11283;SDS011;5698;47.332;11.180;2024-02-26T03:25:37;0.50;;;0.50;;
11283;SDS011;5698;47.332;11.180;2024-02-26T03:28:05;0.50;;;0.50;;
11283;SDS011;5698;47.332;11.180;2024-02-26T03:30:33;0.90;;;0.53;;
11283;SDS011;5698;47.332;11.180;2024-02-26T03:33:00;0.50;;;0.50;;
11283;SDS011;5698;47.332;11.180;2024-02-26T03:35:27;0.50;;;0.50;;
11283;SDS011;5698;47.332;11.180;2024-02-26T03:37:54;0.43;;;0.43;;
11283;SDS011;5698;47.332;11.180;2024-02-26T03:40:21;0.40;;;0.40;;
11283;SDS011;5698;47.332;11.180;2024-02-26T03:42:49;0.50;;;0.50;;
11283;SDS011;5698;47.332;11.180;2024-02-26T03:45:17;0.50;;;0.50;;
11283;SDS011;5698;47.332;11.180;2024-02-26T03:47:46;1.43;;;0.47;;
11283;SDS011;5698;47.332;11.180;2024-02-26T03:50:13;0.40;;;0.40;;
11283;SDS011;5698;47.332;11.180;2024-02-26T03:52:40;0.50;;;0.50;;
11283;SDS011;5698;47.332;11.180;2024-02-26T03:55:07;0.50;;;0.50;;
11283;SDS011;5698;47.332;11.180;2024-02-26T03:57:35;0.47;;;0.47;;
11283;SDS011;5698;47.332;11.180;2024-02-26T04:00:02;0.50;;;0.50;;
11283;SDS011;5698;47.332;11.180;2024-02-26T04:02:31;0.43;;;0.43;;
11283;SDS011;5698;47.332;11.180;2024-02-26T04:04:59;0.50;;;0.50;;
11283;SDS011;5698;47.332;11.180;2024-02-26T04:07:26;0.63;;;0.50;;
11283;SDS011;5698;47.332;11.180;2024-02-26T04:09:53;0.50;;;0.50;;
11283;SDS011;5698;47.332;11.180;2024-02-26T04:12:20;0.40;;;0.40;;
11283;SDS011;5698;47.332;11.180;2024-02-26T04:14:47;0.47;;;0.47;;
11283;SDS011;5698;47.332;11.180;2024-02-26T04:17:14;0.50;;;0.50;;
11283;SDS011;5698;47.332;11.180;2024-02-26T04:19:41;0.50;;;0.50;;
11283;SDS011;5698;47.332;11.180;2024-02-26T04:22:10;0.50;;;0.50;;
11283;SDS011;5698;47.332;11.180;2024-02-26T04:24:37;0.60;;;0.50;;
11283;SDS011;5698;47.332;11.180;2024-02-26T04:27:04;0.60;;;0.60;;
11283;SDS011;5698;47.332;11.180;2024-02-26T04:29:31;0.50;;;0.50;;
11283;SDS011;5698;47.332;11.180;2024-02-26T04:31:58;0.90;;;0.47;;
11283;SDS011;5698;47.332;11.180;2024-02-26T04:34:25;0.50;;;0.50;;
11283;SDS011;5698;47.332;11.180;2024-02-26T04:36:52;0.50;;;0.50;;
11283;SDS011;5698;47.332;11.180;2024-02-26T04:39:20;0.77;;;0.63;;
11283;SDS011;5698;47.332;11.180;2024-02-26T04:41:47;0.50;;;0.50;;
11283;SDS011;5698;47.332;11.180;2024-02-26T04:44:14;0.40;;;0.40;;
11283;SDS011;5698;47.332;11.180;2024-02-26T04:46:41;0.40;;;0.40;;
11283;SDS011;5698;47.332;11.180;2024-02-26T04:49:08;0.70;;;0.50;;
11283;SDS011;5698;47.332;11.180;2024-02-26T04:51:35;0.47;;;0.47;;
11283;SDS011;5698;47.332;11.180;2024-02-26T04:54:03;0.47;;;0.47;;
11283;SDS011;5698;47.332;11.180;2024-02-26T04:56:31;0.53;;;0.53;;
11283;SDS011;5698;47.332;11.180;2024-02-26T04:58:58;0.43;;;0.40;;
11283;SDS011;5698;47.332;11.180;2024-02-26T05:01:25;0.53;;;0.53;;
11283;SDS011;5698;47.332;11.180;2024-02-26T05:03:52;1.13;;;0.60;;
11283;SDS011;5698;47.332;11.180;2024-02-26T05:06:19;0.83;;;0.40;;
11283;SDS011;5698;47.332;11.180;2024-02-26T05:08:46;0.60;;;0.60;;
11283;SDS011;5698;47.332;11.180;2024-02-26T05:11:13;0.50;;;0.50;;
11283;SDS011;5698;47.332;11.180;2024-02-26T05:13:41;0.40;;;0.40;;
11283;SDS011;5698;47.332;11.180;2024-02-26T05:16:10;0.60;;;0.60;;
11283;SDS011;5698;47.332;11.180;2024-02-26T05:18:37;0.77;;;0.60;;
11283;SDS011;5698;47.332;11.180;2024-02-26T05:21:04;0.53;;;0.50;;
11283;SDS011;5698;47.332;11.180;2024-02-26T05:23:31;0.53;;;0.50;;
11283;SDS011;5698;47.332;11.180;2024-02-26T05:25:58;0.70;;;0.50;;
11283;SDS011;5698;47.332;11.180;2024-02-26T05:28:25;0.50;;;0.50;;
11283;SDS011;5698;47.332;11.180;2024-02-26T05:30:53;0.60;;;0.60;;
11283;SDS011;5698;47.332;11.180;2024-02-26T05:33:20;0.50;;;0.50;;
11283;SDS011;5698;47.332;11.180;2024-02-26T05:35:48;0.50;;;0.50;;
11283;SDS011;5698;47.332;11.180;2024-02-26T05:38:15;0.50;;;0.50;;
11283;SDS011;5698;47.332;11.180;2024-02-26T05:40:42;1.23;;;0.73;;
11283;SDS011;5698;47.332;11.180;2024-02-26T05:43:11;0.63;;;0.60;;
11283;SDS011;5698;47.332;11.180;2024-02-26T05:45:40;0.57;;;0.57;;
11283;SDS011;5698;47.332;11.180;2024-02-26T05:48:08;0.60;;;0.60;;
11283;SDS011;5698;47.332;11.180;2024-02-26T05:50:35;0.90;;;0.80;;
11283;SDS011;5698;47.332;11.180;2024-02-26T05:53:02;0.63;;;0.63;;
11283;SDS011;5698;47.332;11.180;2024-02-26T05:55:30;1.03;;;0.83;;
11283;SDS011;5698;47.332;11.180;2024-02-26T05:57:57;1.23;;;1.10;;
11283;SDS011;5698;47.332;11.180;2024-02-26T06:00:23;0.80;;;0.80;;
11283;SDS011;5698;47.332;11.180;2024-02-26T06:02:50;0.83;;;0.80;;
11283;SDS011;5698;47.332;11.180;2024-02-26T06:05:19;1.20;;;1.10;;
11283;SDS011;5698;47.332;11.180;2024-02-26T06:07:46;0.93;;;0.93;;
11283;SDS011;5698;47.332;11.180;2024-02-26T06:10:13;0.73;;;0.73;;
11283;SDS011;5698;47.332;11.180;2024-02-26T06:12:40;0.73;;;0.73;;
11283;SDS011;5698;47.332;11.180;2024-02-26T06:15:07;0.60;;;0.60;;
11283;SDS011;5698;47.332;11.180;2024-02-26T06:17:35;0.53;;;0.53;;
11283;SDS011;5698;47.332;11.180;2024-02-26T06:20:02;1.20;;;1.10;;
11283;SDS011;5698;47.332;11.180;2024-02-26T06:22:32;0.70;;;0.70;;
11283;SDS011;5698;47.332;11.180;2024-02-26T06:24:59;1.53;;;0.70;;
11283;SDS011;5698;47.332;11.180;2024-02-26T06:27:26;1.30;;;0.40;;
11283;SDS011;5698;47.332;11.180;2024-02-26T06:29:53;0.50;;;0.50;;
11283;SDS011;5698;47.332;11.180;2024-02-26T06:32:20;0.50;;;0.47;;
11283;SDS011;5698;47.332;11.180;2024-02-26T06:34:48;0.50;;;0.50;;
11283;SDS011;5698;47.332;11.180;2024-02-26T06:37:15;1.10;;;0.60;;
11283;SDS011;5698;47.332;11.180;2024-02-26T06:39:43;0.60;;;0.60;;
11283;SDS011;5698;47.332;11.180;2024-02-26T06:42:10;0.83;;;0.80;;
11283;SDS011;5698;47.332;11.180;2024-02-26T06:44:37;0.70;;;0.70;;
11283;SDS011;5698;47.332;11.180;2024-02-26T06:47:05;0.80;;;0.80;;
11283;SDS011;5698;47.332;11.180;2024-02-26T06:49:32;0.80;;;0.80;;
11283;SDS011;5698;47.332;11.180;2024-02-26T06:51:59;1.97;;;0.90;;
11283;SDS011;5698;47.332;11.180;2024-02-26T06:54:26;2.00;;;1.00;;
11283;SDS011;5698;47.332;11.180;2024-02-26T06:56:54;0.70;;;0.70;;
11283;SDS011;5698;47.332;11.180;2024-02-26T06:59:21;1.83;;;1.67;;
11283;SDS011;5698;47.332;11.180;2024-02-26T07:01:48;2.07;;;1.87;;
11283;SDS011;5698;47.332;11.180;2024-02-26T07:04:15;1.70;;;1.40;;
11283;SDS011;5698;47.332;11.180;2024-02-26T07:06:42;1.10;;;1.00;;
11283;SDS011;5698;47.332;11.180;2024-02-26T07:09:11;1.20;;;0.90;;
11283;SDS011;5698;47.332;11.180;2024-02-26T07:11:38;1.27;;;0.87;;
11283;SDS011;5698;47.332;11.180;2024-02-26T07:14:08;0.73;;;0.70;;
11283;SDS011;5698;47.332;11.180;2024-02-26T07:16:35;0.83;;;0.83;;
11283;SDS011;5698;47.332;11.180;2024-02-26T07:19:02;1.00;;;0.80;;
11283;SDS011;5698;47.332;11.180;2024-02-26T07:21:29;0.90;;;0.70;;
11283;SDS011;5698;47.332;11.180;2024-02-26T07:23:56;1.00;;;0.90;;
11283;SDS011;5698;47.332;11.180;2024-02-26T07:26:23;1.13;;;0.87;;
11283;SDS011;5698;47.332;11.180;2024-02-26T07:28:51;0.70;;;0.70;;
11283;SDS011;5698;47.332;11.180;2024-02-26T07:31:19;0.90;;;0.90;;
11283;SDS011;5698;47.332;11.180;2024-02-26T07:33:46;0.90;;;0.80;;
11283;SDS011;5698;47.332;11.180;2024-02-26T07:36:13;1.00;;;0.80;;
11283;SDS011;5698;47.332;11.180;2024-02-26T07:38:40;0.93;;;0.70;;
11283;SDS011;5698;47.332;11.180;2024-02-26T07:41:07;0.83;;;0.80;;
11283;SDS011;5698;47.332;11.180;2024-02-26T07:43:34;0.70;;;0.70;;
11283;SDS011;5698;47.332;11.180;2024-02-26T07:46:01;0.70;;;0.70;;
11283;SDS011;5698;47.332;11.180;2024-02-26T07:48:30;0.90;;;0.87;;
11283;SDS011;5698;47.332;11.180;2024-02-26T07:50:57;1.90;;;0.90;;
11283;SDS011;5698;47.332;11.180;2024-02-26T07:53:25;0.77;;;0.77;;
11283;SDS011;5698;47.332;11.180;2024-02-26T07:55:52;1.07;;;0.77;;
11283;SDS011;5698;47.332;11.180;2024-02-26T07:58:19;0.80;;;0.70;;
11283;SDS011;5698;47.332;11.180;2024-02-26T08:00:45;0.70;;;0.70;;
11283;SDS011;5698;47.332;11.180;2024-02-26T08:03:12;2.07;;;1.00;;
11283;SDS011;5698;47.332;11.180;2024-02-26T08:05:42;1.40;;;1.10;;
11283;SDS011;5698;47.332;11.180;2024-02-26T08:08:09;1.73;;;1.33;;
11283;SDS011;5698;47.332;11.180;2024-02-26T08:10:36;1.43;;;1.30;;
11283;SDS011;5698;47.332;11.180;2024-02-26T08:13:03;1.40;;;1.27;;
11283;SDS011;5698;47.332;11.180;2024-02-26T08:15:31;3.07;;;1.63;;
11283;SDS011;5698;47.332;11.180;2024-02-26T08:17:59;2.07;;;1.57;;
11283;SDS011;5698;47.332;11.180;2024-02-26T08:20:27;1.53;;;1.17;;
11283;SDS011;5698;47.332;11.180;2024-02-26T08:22:56;1.20;;;1.10;;
11283;SDS011;5698;47.332;11.180;2024-02-26T08:25:23;2.37;;;0.90;;
11283;SDS011;5698;47.332;11.180;2024-02-26T08:27:50;1.10;;;1.00;;
11283;SDS011;5698;47.332;11.180;2024-02-26T08:30:17;0.97;;;0.97;;
11283;SDS011;5698;47.332;11.180;2024-02-26T08:32:44;0.70;;;0.70;;
11283;SDS011;5698;47.332;11.180;2024-02-26T08:35:12;1.03;;;0.90;;
11283;SDS011;5698;47.332;11.180;2024-02-26T08:37:39;1.20;;;1.03;;
11283;SDS011;5698;47.332;11.180;2024-02-26T08:40:08;1.13;;;1.00;;
11283;SDS011;5698;47.332;11.180;2024-02-26T08:42:35;1.20;;;1.00;;
11283;SDS011;5698;47.332;11.180;2024-02-26T08:45:02;1.37;;;1.07;;
11283;SDS011;5698;47.332;11.180;2024-02-26T08:47:29;0.90;;;0.90;;
11283;SDS011;5698;47.332;11.180;2024-02-26T08:49:57;0.80;;;0.80;;
11283;SDS011;5698;47.332;11.180;2024-02-26T08:52:24;0.70;;;0.70;;
11283;SDS011;5698;47.332;11.180;2024-02-26T08:54:51;0.87;;;0.87;;
11283;SDS011;5698;47.332;11.180;2024-02-26T08:57:19;0.60;;;0.60;;
11283;SDS011;5698;47.332;11.180;2024-02-26T08:59:46;1.17;;;1.00;;
11283;SDS011;5698;47.332;11.180;2024-02-26T09:02:13;0.70;;;0.70;;
11283;SDS011;5698;47.332;11.180;2024-02-26T09:04:40;1.93;;;0.93;;
11283;SDS011;5698;47.332;11.180;2024-02-26T09:07:07;1.00;;;0.80;;
11283;SDS011;5698;47.332;11.180;2024-02-26T09:09:34;0.93;;;0.70;;
11283;SDS011;5698;47.332;11.180;2024-02-26T09:12:01;0.50;;;0.50;;
11283;SDS011;5698;47.332;11.180;2024-02-26T09:14:30;0.70;;;0.70;;
11283;SDS011;5698;47.332;11.180;2024-02-26T09:16:57;0.47;;;0.47;;
11283;SDS011;5698;47.332;11.180;2024-02-26T09:19:26;0.63;;;0.63;;
11283;SDS011;5698;47.332;11.180;2024-02-26T09:21:53;0.70;;;0.60;;
11283;SDS011;5698;47.332;11.180;2024-02-26T09:24:22;0.60;;;0.60;;
11283;SDS011;5698;47.332;11.180;2024-02-26T09:26:49;0.67;;;0.67;;
11283;SDS011;5698;47.332;11.180;2024-02-26T09:29:16;0.60;;;0.60;;
11283;SDS011;5698;47.332;11.180;2024-02-26T09:31:45;0.97;;;0.60;;
11283;SDS011;5698;47.332;11.180;2024-02-26T09:34:13;0.60;;;0.60;;
11283;SDS011;5698;47.332;11.180;2024-02-26T09:36:40;1.10;;;0.67;;
11283;SDS011;5698;47.332;11.180;2024-02-26T09:39:07;0.50;;;0.50;;
11283;SDS011;5698;47.332;11.180;2024-02-26T09:41:36;0.50;;;0.50;;
11283;SDS011;5698;47.332;11.180;2024-02-26T09:44:04;0.60;;;0.60;;
11283;SDS011;5698;47.332;11.180;2024-02-26T09:46:32;0.57;;;0.57;;
11283;SDS011;5698;47.332;11.180;2024-02-26T09:49:03;0.50;;;0.50;;
11283;SDS011;5698;47.332;11.180;2024-02-26T09:51:30;0.50;;;0.50;;
11283;SDS011;5698;47.332;11.180;2024-02-26T09:53:58;1.20;;;0.53;;
11283;SDS011;5698;47.332;11.180;2024-02-26T09:56:27;1.03;;;0.60;;
11283;SDS011;5698;47.332;11.180;2024-02-26T09:58:55;0.50;;;0.50;;
11283;SDS011;5698;47.332;11.180;2024-02-26T10:01:23;0.50;;;0.50;;
11283;SDS011;5698;47.332;11.180;2024-02-26T10:03:52;0.50;;;0.50;;
11283;SDS011;5698;47.332;11.180;2024-02-26T10:06:24;0.40;;;0.40;;
11283;SDS011;5698;47.332;11.180;2024-02-26T10:08:53;1.10;;;0.63;;
11283;SDS011;5698;47.332;11.180;2024-02-26T10:11:23;0.50;;;0.50;;
11283;SDS011;5698;47.332;11.180;2024-02-26T10:13:51;0.30;;;0.30;;
11283;SDS011;5698;47.332;11.180;2024-02-26T10:16:18;0.40;;;0.40;;
11283;SDS011;5698;47.332;11.180;2024-02-26T10:18:46;0.50;;;0.50;;
11283;SDS011;5698;47.332;11.180;2024-02-26T10:21:14;0.40;;;0.40;;
11283;SDS011;5698;47.332;11.180;2024-02-26T10:23:44;0.50;;;0.50;;
11283;SDS011;5698;47.332;11.180;2024-02-26T10:26:12;0.40;;;0.40;;
11283;SDS011;5698;47.332;11.180;2024-02-26T10:28:41;0.50;;;0.50;;
11283;SDS011;5698;47.332;11.180;2024-02-26T10:31:09;0.40;;;0.40;;
11283;SDS011;5698;47.332;11.180;2024-02-26T10:33:38;0.60;;;0.57;;
11283;SDS011;5698;47.332;11.180;2024-02-26T10:36:06;0.40;;;0.40;;
11283;SDS011;5698;47.332;11.180;2024-02-26T10:38:34;0.47;;;0.47;;
11283;SDS011;5698;47.332;11.180;2024-02-26T10:41:03;0.47;;;0.47;;
11283;SDS011;5698;47.332;11.180;2024-02-26T10:43:30;0.40;;;0.40;;
11283;SDS011;5698;47.332;11.180;2024-02-26T10:45:57;0.70;;;0.70;;
11283;SDS011;5698;47.332;11.180;2024-02-26T10:48:24;0.53;;;0.50;;
11283;SDS011;5698;47.332;11.180;2024-02-26T10:50:51;0.53;;;0.53;;
11283;SDS011;5698;47.332;11.180;2024-02-26T10:53:20;0.60;;;0.60;;
11283;SDS011;5698;47.332;11.180;2024-02-26T10:55:48;0.50;;;0.50;;
11283;SDS011;5698;47.332;11.180;2024-02-26T10:58:27;0.43;;;0.40;;
11283;SDS011;5698;47.332;11.180;2024-02-26T11:00:56;1.50;;;0.53;;
11283;SDS011;5698;47.332;11.180;2024-02-26T11:03:24;0.50;;;0.50;;
11283;SDS011;5698;47.332;11.180;2024-02-26T11:05:51;0.67;;;0.63;;
11283;SDS011;5698;47.332;11.180;2024-02-26T11:08:19;0.80;;;0.80;;
11283;SDS011;5698;47.332;11.180;2024-02-26T11:10:46;0.87;;;0.60;;
11283;SDS011;5698;47.332;11.180;2024-02-26T11:13:14;0.47;;;0.47;;
11283;SDS011;5698;47.332;11.180;2024-02-26T11:15:45;0.83;;;0.50;;
11283;SDS011;5698;47.332;11.180;2024-02-26T11:18:14;0.40;;;0.40;;
11283;SDS011;5698;47.332;11.180;2024-02-26T11:20:41;0.50;;;0.50;;
11283;SDS011;5698;47.332;11.180;2024-02-26T11:23:09;0.53;;;0.53;;
11283;SDS011;5698;47.332;11.180;2024-02-26T11:25:37;0.87;;;0.40;;
11283;SDS011;5698;47.332;11.180;2024-02-26T11:28:06;0.50;;;0.50;;
11283;SDS011;5698;47.332;11.180;2024-02-26T11:30:38;0.50;;;0.50;;
11283;SDS011;5698;47.332;11.180;2024-02-26T11:33:10;0.67;;;0.50;;
11283;SDS011;5698;47.332;11.180;2024-02-26T11:35:38;0.47;;;0.40;;
11283;SDS011;5698;47.332;11.180;2024-02-26T11:38:05;0.77;;;0.60;;
11283;SDS011;5698;47.332;11.180;2024-02-26T11:40:33;0.40;;;0.40;;
11283;SDS011;5698;47.332;11.180;2024-02-26T11:43:04;0.60;;;0.50;;
11283;SDS011;5698;47.332;11.180;2024-02-26T11:48:25;0.70;;;0.70;;
11283;SDS011;5698;47.332;11.180;2024-02-26T11:50:55;0.60;;;0.60;;
11283;SDS011;5698;47.332;11.180;2024-02-26T11:53:24;0.57;;;0.57;;
11283;SDS011;5698;47.332;11.180;2024-02-26T11:58:48;1.00;;;0.90;;
11283;SDS011;5698;47.332;11.180;2024-02-26T12:01:41;0.60;;;0.60;;
11283;SDS011;5698;47.332;11.180;2024-02-26T12:04:18;1.23;;;0.70;;
11283;SDS011;5698;47.332;11.180;2024-02-26T12:06:48;0.97;;;0.63;;
11283;SDS011;5698;47.332;11.180;2024-02-26T12:12:06;1.43;;;0.80;;
11283;SDS011;5698;47.332;11.180;2024-02-26T12:14:34;0.60;;;0.60;;
11283;SDS011;5698;47.332;11.180;2024-02-26T12:17:03;0.70;;;0.50;;
11283;SDS011;5698;47.332;11.180;2024-02-26T12:19:33;0.60;;;0.60;;
11283;SDS011;5698;47.332;11.180;2024-02-26T12:22:01;0.77;;;0.70;;
11283;SDS011;5698;47.332;11.180;2024-02-26T12:24:28;0.80;;;0.43;;
11283;SDS011;5698;47.332;11.180;2024-02-26T12:26:55;0.77;;;0.50;;
11283;SDS011;5698;47.332;11.180;2024-02-26T12:29:23;0.50;;;0.47;;
11283;SDS011;5698;47.332;11.180;2024-02-26T12:31:50;0.57;;;0.47;;
11283;SDS011;5698;47.332;11.180;2024-02-26T12:34:17;0.50;;;0.50;;
11283;SDS011;5698;47.332;11.180;2024-02-26T12:36:46;0.47;;;0.47;;
11283;SDS011;5698;47.332;11.180;2024-02-26T12:39:13;0.90;;;0.60;;
11283;SDS011;5698;47.332;11.180;2024-02-26T12:41:40;0.50;;;0.50;;
11283;SDS011;5698;47.332;11.180;2024-02-26T12:44:11;0.50;;;0.50;;
11283;SDS011;5698;47.332;11.180;2024-02-26T12:46:38;0.60;;;0.60;;
11283;SDS011;5698;47.332;11.180;2024-02-26T12:49:05;0.90;;;0.70;;
11283;SDS011;5698;47.332;11.180;2024-02-26T12:51:33;0.60;;;0.60;;
11283;SDS011;5698;47.332;11.180;2024-02-26T12:54:02;1.07;;;0.70;;
11283;SDS011;5698;47.332;11.180;2024-02-26T12:56:29;0.70;;;0.70;;
11283;SDS011;5698;47.332;11.180;2024-02-26T12:58:57;1.07;;;0.70;;
11283;SDS011;5698;47.332;11.180;2024-02-26T13:01:25;0.93;;;0.70;;
11283;SDS011;5698;47.332;11.180;2024-02-26T13:03:53;0.97;;;0.53;;
11283;SDS011;5698;47.332;11.180;2024-02-26T13:06:21;0.60;;;0.60;;
11283;SDS011;5698;47.332;11.180;2024-02-26T13:08:48;1.03;;;0.87;;
11283;SDS011;5698;47.332;11.180;2024-02-26T13:11:17;0.70;;;0.57;;
11283;SDS011;5698;47.332;11.180;2024-02-26T13:13:47;0.70;;;0.63;;
11283;SDS011;5698;47.332;11.180;2024-02-26T13:16:15;0.60;;;0.60;;
11283;SDS011;5698;47.332;11.180;2024-02-26T13:18:42;1.70;;;0.43;;
11283;SDS011;5698;47.332;11.180;2024-02-26T13:21:10;0.50;;;0.50;;
11283;SDS011;5698;47.332;11.180;2024-02-26T13:23:38;0.30;;;0.30;;
11283;SDS011;5698;47.332;11.180;2024-02-26T13:26:06;0.67;;;0.50;;
11283;SDS011;5698;47.332;11.180;2024-02-26T13:28:35;0.50;;;0.50;;
11283;SDS011;5698;47.332;11.180;2024-02-26T13:31:02;0.40;;;0.40;;
11283;SDS011;5698;47.332;11.180;2024-02-26T13:33:31;0.43;;;0.43;;
11283;SDS011;5698;47.332;11.180;2024-02-26T13:35:59;0.60;;;0.53;;
11283;SDS011;5698;47.332;11.180;2024-02-26T13:38:26;0.70;;;0.70;;
11283;SDS011;5698;47.332;11.180;2024-02-26T13:40:54;0.53;;;0.53;;
11283;SDS011;5698;47.332;11.180;2024-02-26T13:43:21;0.90;;;0.87;;
11283;SDS011;5698;47.332;11.180;2024-02-26T13:45:49;1.43;;;0.60;;
11283;SDS011;5698;47.332;11.180;2024-02-26T13:48:17;0.60;;;0.60;;
11283;SDS011;5698;47.332;11.180;2024-02-26T13:50:44;1.50;;;0.50;;
11283;SDS011;5698;47.332;11.180;2024-02-26T13:53:11;0.80;;;0.63;;
11283;SDS011;5698;47.332;11.180;2024-02-26T13:55:39;1.03;;;0.60;;
11283;SDS011;5698;47.332;11.180;2024-02-26T13:58:08;0.40;;;0.40;;
11283;SDS011;5698;47.332;11.180;2024-02-26T14:00:38;0.50;;;0.50;;
11283;SDS011;5698;47.332;11.180;2024-02-26T14:03:08;0.50;;;0.50;;
11283;SDS011;5698;47.332;11.180;2024-02-26T14:05:34;1.23;;;0.67;;
11283;SDS011;5698;47.332;11.180;2024-02-26T14:08:01;0.60;;;0.60;;
11283;SDS011;5698;47.332;11.180;2024-02-26T14:10:29;1.10;;;1.00;;
11283;SDS011;5698;47.332;11.180;2024-02-26T14:12:57;1.07;;;0.60;;
11283;SDS011;5698;47.332;11.180;2024-02-26T14:15:24;0.97;;;0.80;;
11283;SDS011;5698;47.332;11.180;2024-02-26T14:17:51;0.80;;;0.70;;
11283;SDS011;5698;47.332;11.180;2024-02-26T14:20:22;2.37;;;0.93;;
11283;SDS011;5698;47.332;11.180;2024-02-26T14:22:50;0.60;;;0.60;;
11283;SDS011;5698;47.332;11.180;2024-02-26T14:25:18;0.80;;;0.70;;
11283;SDS011;5698;47.332;11.180;2024-02-26T14:27:46;0.77;;;0.70;;
11283;SDS011;5698;47.332;11.180;2024-02-26T14:30:13;1.37;;;0.60;;
11283;SDS011;5698;47.332;11.180;2024-02-26T14:32:40;1.37;;;0.90;;
11283;SDS011;5698;47.332;11.180;2024-02-26T14:35:08;0.60;;;0.60;;
11283;SDS011;5698;47.332;11.180;2024-02-26T14:37:37;1.10;;;0.60;;
11283;SDS011;5698;47.332;11.180;2024-02-26T14:40:04;0.80;;;0.80;;
11283;SDS011;5698;47.332;11.180;2024-02-26T14:42:33;0.60;;;0.60;;
11283;SDS011;5698;47.332;11.180;2024-02-26T14:45:00;0.50;;;0.50;;
11283;SDS011;5698;47.332;11.180;2024-02-26T14:47:27;0.67;;;0.67;;
11283;SDS011;5698;47.332;11.180;2024-02-26T14:49:54;0.60;;;0.60;;
11283;SDS011;5698;47.332;11.180;2024-02-26T14:52:21;0.63;;;0.50;;
11283;SDS011;5698;47.332;11.180;2024-02-26T14:54:49;0.50;;;0.50;;
11283;SDS011;5698;47.332;11.180;2024-02-26T14:57:16;0.67;;;0.60;;
11283;SDS011;5698;47.332;11.180;2024-02-26T14:59:43;0.60;;;0.60;;